sensor_id;sensor_type;location;lat;lon;timestamp;pressure;altitude;pressure_sealevel;temperature;humidity
77124;BME280;66079;47.646;19.130;2023-01-20T00:02:47;99631.59;;;2.13;80.83
77124;BME280;66079;47.646;19.130;2023-01-20T00:05:50;99629.34;;;2.18;80.51
77124;BME280;66079;47.646;19.130;2023-01-20T00:08:55;99627.41;;;2.12;80.57
77124;BME280;66079;47.646;19.130;2023-01-20T00:11:58;99639.44;;;2.20;80.63
77124;BME280;66079;47.646;19.130;2023-01-20T00:15:00;99627.72;;;2.17;81.01
77124;BME280;66079;47.646;19.130;2023-01-20T00:18:03;99625.97;;;2.18;80.23
77124;BME280;66079;47.646;19.130;2023-01-20T00:21:08;99639.91;;;2.15;80.61
77124;BME280;66079;47.646;19.130;2023-01-20T00:24:11;99611.13;;;1.97;80.45
77124;BME280;66079;47.646;19.130;2023-01-20T00:27:15;99631.44;;;2.15;80.40
77124;BME280;66079;47.646;19.130;2023-01-20T00:30:21;99642.03;;;2.12;81.08
77124;BME280;66079;47.646;19.130;2023-01-20T00:33:23;99639.91;;;2.15;81.03
77124;BME280;66079;47.646;19.130;2023-01-20T00:36:28;99662.94;;;2.31;81.41
77124;BME280;66079;47.646;19.130;2023-01-20T00:39:30;99656.03;;;2.32;81.01
77124;BME280;66079;47.646;19.130;2023-01-20T00:42:33;99651.53;;;2.34;81.17
77124;BME280;66079;47.646;19.130;2023-01-20T00:45:35;99647.53;;;2.39;81.59
77124;BME280;66079;47.646;19.130;2023-01-20T00:48:38;99661.75;;;2.42;81.51
77124;BME280;66079;47.646;19.130;2023-01-20T00:51:40;99676.66;;;2.46;81.73
77124;BME280;66079;47.646;19.130;2023-01-20T00:54:43;99686.28;;;2.44;81.85
77124;BME280;66079;47.646;19.130;2023-01-20T00:57:46;99701.31;;;2.55;81.98
77124;BME280;66079;47.646;19.130;2023-01-20T01:00:50;99693.66;;;2.47;82.38
77124;BME280;66079;47.646;19.130;2023-01-20T01:03:53;99695.88;;;2.50;82.47
77124;BME280;66079;47.646;19.130;2023-01-20T01:06:55;99694.56;;;2.62;82.59
77124;BME280;66079;47.646;19.130;2023-01-20T01:09:58;99686.59;;;2.49;82.63
77124;BME280;66079;47.646;19.130;2023-01-20T01:13:01;99667.50;;;2.52;82.90
77124;BME280;66079;47.646;19.130;2023-01-20T01:16:09;99659.13;;;2.58;83.00
77124;BME280;66079;47.646;19.130;2023-01-20T01:19:12;99655.13;;;2.55;83.37
77124;BME280;66079;47.646;19.130;2023-01-20T01:22:15;99646.16;;;2.51;83.17
77124;BME280;66079;47.646;19.130;2023-01-20T01:25:18;99644.19;;;2.61;83.06
77124;BME280;66079;47.646;19.130;2023-01-20T01:28:20;99635.84;;;2.67;83.16
77124;BME280;66079;47.646;19.130;2023-01-20T01:31:23;99631.50;;;2.68;82.78
77124;BME280;66079;47.646;19.130;2023-01-20T01:34:26;99627.38;;;2.59;82.82
77124;BME280;66079;47.646;19.130;2023-01-20T01:37:28;99622.59;;;2.56;83.54
77124;BME280;66079;47.646;19.130;2023-01-20T01:40:31;99615.19;;;2.61;83.51
77124;BME280;66079;47.646;19.130;2023-01-20T01:43:35;99616.56;;;2.71;82.68
77124;BME280;66079;47.646;19.130;2023-01-20T01:46:39;99612.41;;;2.70;81.03
77124;BME280;66079;47.646;19.130;2023-01-20T01:49:43;99611.94;;;2.67;81.11
77124;BME280;66079;47.646;19.130;2023-01-20T01:52:48;99626.00;;;2.79;80.46
77124;BME280;66079;47.646;19.130;2023-01-20T01:55:57;99617.19;;;2.73;81.04
77124;BME280;66079;47.646;19.130;2023-01-20T01:59:01;99618.63;;;2.76;81.46
77124;BME280;66079;47.646;19.130;2023-01-20T02:02:07;99611.19;;;2.58;82.03
77124;BME280;66079;47.646;19.130;2023-01-20T02:05:11;99604.22;;;2.44;83.03
77124;BME280;66079;47.646;19.130;2023-01-20T02:08:15;99587.72;;;2.39;82.82
77124;BME280;66079;47.646;19.130;2023-01-20T02:11:18;99604.22;;;2.44;83.07
77124;BME280;66079;47.646;19.130;2023-01-20T02:14:26;99603.94;;;2.39;82.96
77124;BME280;66079;47.646;19.130;2023-01-20T02:17:34;99610.72;;;2.55;83.31
77124;BME280;66079;47.646;19.130;2023-01-20T02:30:40;99605.38;;;2.64;82.14
77124;BME280;66079;47.646;19.130;2023-01-20T02:34:17;99615.38;;;2.51;82.18
77124;BME280;66079;47.646;19.130;2023-01-20T02:41:06;99619.75;;;2.51;82.11
77124;BME280;66079;47.646;19.130;2023-01-20T02:51:16;99603.25;;;2.45;82.42
77124;BME280;66079;47.646;19.130;2023-01-20T02:54:22;99607.56;;;2.45;82.61
77124;BME280;66079;47.646;19.130;2023-01-20T02:57:47;99614.19;;;2.39;82.02
77124;BME280;66079;47.646;19.130;2023-01-20T03:01:00;99618.13;;;2.50;81.91
77124;BME280;66079;47.646;19.130;2023-01-20T03:04:04;99621.78;;;2.55;82.04
77124;BME280;66079;47.646;19.130;2023-01-20T03:07:10;99623.41;;;2.48;81.95
77124;BME280;66079;47.646;19.130;2023-01-20T03:10:16;99637.56;;;2.44;82.34
77124;BME280;66079;47.646;19.130;2023-01-20T03:13:33;99631.41;;;2.53;82.18
77124;BME280;66079;47.646;19.130;2023-01-20T03:16:37;99633.81;;;2.55;82.49
77124;BME280;66079;47.646;19.130;2023-01-20T03:19:40;99625.59;;;2.59;81.67
77124;BME280;66079;47.646;19.130;2023-01-20T03:22:43;99642.63;;;2.60;81.36
77124;BME280;66079;47.646;19.130;2023-01-20T03:25:47;99640.38;;;2.57;81.28
77124;BME280;66079;47.646;19.130;2023-01-20T03:28:51;99641.22;;;2.50;81.12
77124;BME280;66079;47.646;19.130;2023-01-20T03:31:58;99653.03;;;2.59;81.47
77124;BME280;66079;47.646;19.130;2023-01-20T03:35:01;99641.63;;;2.61;80.96
77124;BME280;66079;47.646;19.130;2023-01-20T03:38:04;99655.69;;;2.73;80.64
77124;BME280;66079;47.646;19.130;2023-01-20T03:41:29;99641.41;;;2.71;80.60
77124;BME280;66079;47.646;19.130;2023-01-20T03:54:29;99649.00;;;2.64;80.98
77124;BME280;66079;47.646;19.130;2023-01-20T03:57:40;99634.56;;;2.63;80.69
77124;BME280;66079;47.646;19.130;2023-01-20T04:00:47;99647.19;;;2.73;81.19
77124;BME280;66079;47.646;19.130;2023-01-20T04:03:52;99617.91;;;2.59;81.40
77124;BME280;66079;47.646;19.130;2023-01-20T04:06:56;99621.75;;;2.63;80.95
77124;BME280;66079;47.646;19.130;2023-01-20T04:10:05;99609.25;;;2.60;81.61
77124;BME280;66079;47.646;19.130;2023-01-20T04:13:11;99611.81;;;2.60;80.81
77124;BME280;66079;47.646;19.130;2023-01-20T04:16:15;99633.88;;;2.69;80.51
77124;BME280;66079;47.646;19.130;2023-01-20T04:19:18;99632.69;;;2.57;80.90
77124;BME280;66079;47.646;19.130;2023-01-20T04:22:32;99630.72;;;2.67;81.24
77124;BME280;66079;47.646;19.130;2023-01-20T04:25:35;99625.72;;;2.66;80.86
77124;BME280;66079;47.646;19.130;2023-01-20T04:28:38;99630.03;;;2.73;80.98
77124;BME280;66079;47.646;19.130;2023-01-20T04:31:40;99615.16;;;2.69;81.39
77124;BME280;66079;47.646;19.130;2023-01-20T04:34:43;99626.19;;;2.69;81.24
77124;BME280;66079;47.646;19.130;2023-01-20T04:37:45;99636.16;;;2.72;81.41
77124;BME280;66079;47.646;19.130;2023-01-20T04:40:48;99636.16;;;2.72;81.23
77124;BME280;66079;47.646;19.130;2023-01-20T04:43:51;99647.13;;;2.81;81.25
77124;BME280;66079;47.646;19.130;2023-01-20T04:46:57;99642.69;;;2.75;81.30
77124;BME280;66079;47.646;19.130;2023-01-20T04:50:00;99633.84;;;2.78;81.59
77124;BME280;66079;47.646;19.130;2023-01-20T04:53:02;99635.47;;;2.79;81.25
77124;BME280;66079;47.646;19.130;2023-01-20T04:56:10;99641.28;;;2.72;82.35
77124;BME280;66079;47.646;19.130;2023-01-20T04:59:14;99635.69;;;2.69;82.35
77124;BME280;66079;47.646;19.130;2023-01-20T05:02:16;99629.09;;;2.66;82.18
77124;BME280;66079;47.646;19.130;2023-01-20T05:05:19;99627.50;;;2.65;82.21
77124;BME280;66079;47.646;19.130;2023-01-20T05:08:22;99611.03;;;2.60;82.93
77124;BME280;66079;47.646;19.130;2023-01-20T05:11:25;99610.03;;;2.69;82.58
77124;BME280;66079;47.646;19.130;2023-01-20T05:14:28;99591.78;;;2.64;83.07
77124;BME280;66079;47.646;19.130;2023-01-20T05:17:30;99584.41;;;2.61;82.84
77124;BME280;66079;47.646;19.130;2023-01-20T05:20:33;99579.47;;;2.51;83.10
77124;BME280;66079;47.646;19.130;2023-01-20T05:23:35;99581.25;;;2.51;83.46
77124;BME280;66079;47.646;19.130;2023-01-20T05:26:38;99571.06;;;2.43;83.85
77124;BME280;66079;47.646;19.130;2023-01-20T05:29:40;99574.19;;;2.53;83.95
77124;BME280;66079;47.646;19.130;2023-01-20T05:32:48;99564.69;;;2.61;83.65
77124;BME280;66079;47.646;19.130;2023-01-20T05:35:51;99573.81;;;2.64;83.84
77124;BME280;66079;47.646;19.130;2023-01-20T05:38:57;99576.97;;;2.66;83.42
77124;BME280;66079;47.646;19.130;2023-01-20T05:42:00;99595.34;;;2.78;83.19
77124;BME280;66079;47.646;19.130;2023-01-20T05:45:03;99591.44;;;2.67;84.09
77124;BME280;66079;47.646;19.130;2023-01-20T05:48:07;99585.16;;;2.69;83.71
77124;BME280;66079;47.646;19.130;2023-01-20T05:51:09;99594.75;;;2.76;83.65
77124;BME280;66079;47.646;19.130;2023-01-20T05:54:12;99576.56;;;2.62;84.02
77124;BME280;66079;47.646;19.130;2023-01-20T05:57:14;99578.78;;;2.65;83.92
77124;BME280;66079;47.646;19.130;2023-01-20T06:00:19;99597.09;;;2.85;83.91
77124;BME280;66079;47.646;19.130;2023-01-20T06:03:22;99598.50;;;2.88;83.35
77124;BME280;66079;47.646;19.130;2023-01-20T06:06:24;99611.09;;;2.74;84.14
77124;BME280;66079;47.646;19.130;2023-01-20T06:09:27;99607.41;;;2.77;84.29
77124;BME280;66079;47.646;19.130;2023-01-20T06:12:29;99593.75;;;2.77;84.11
77124;BME280;66079;47.646;19.130;2023-01-20T06:15:32;99600.84;;;2.74;84.23
77124;BME280;66079;47.646;19.130;2023-01-20T06:18:34;99607.00;;;2.88;84.09
77124;BME280;66079;47.646;19.130;2023-01-20T06:21:37;99611.78;;;2.91;83.53
77124;BME280;66079;47.646;19.130;2023-01-20T06:24:40;99594.34;;;2.87;83.53
77124;BME280;66079;47.646;19.130;2023-01-20T06:27:42;99604.25;;;2.90;83.71
77124;BME280;66079;47.646;19.130;2023-01-20T06:30:45;99595.94;;;2.88;83.53
77124;BME280;66079;47.646;19.130;2023-01-20T06:33:48;99598.44;;;2.96;83.46
77124;BME280;66079;47.646;19.130;2023-01-20T06:36:50;99591.91;;;2.93;83.82
77124;BME280;66079;47.646;19.130;2023-01-20T06:39:53;99596.69;;;2.96;83.72
77124;BME280;66079;47.646;19.130;2023-01-20T06:42:56;99591.84;;;3.01;83.50
77124;BME280;66079;47.646;19.130;2023-01-20T06:46:00;99600.34;;;3.02;83.44
77124;BME280;66079;47.646;19.130;2023-01-20T06:49:05;99603.09;;;3.00;83.52
77124;BME280;66079;47.646;19.130;2023-01-20T06:52:07;99617.50;;;3.01;83.73
77124;BME280;66079;47.646;19.130;2023-01-20T06:55:11;99620.19;;;3.08;84.05
77124;BME280;66079;47.646;19.130;2023-01-20T06:58:14;99616.25;;;2.97;84.35
77124;BME280;66079;47.646;19.130;2023-01-20T07:01:25;99614.69;;;3.11;83.90
77124;BME280;66079;47.646;19.130;2023-01-20T07:04:28;99627.28;;;3.20;83.57
77124;BME280;66079;47.646;19.130;2023-01-20T07:07:31;99608.16;;;3.08;83.55
77124;BME280;66079;47.646;19.130;2023-01-20T07:10:34;99613.41;;;3.15;83.63
77124;BME280;66079;47.646;19.130;2023-01-20T07:13:37;99628.66;;;3.31;83.01
77124;BME280;66079;47.646;19.130;2023-01-20T07:16:40;99626.53;;;3.20;83.41
77124;BME280;66079;47.646;19.130;2023-01-20T07:19:42;99642.56;;;3.22;83.73
77124;BME280;66079;47.646;19.130;2023-01-20T07:22:45;99632.78;;;3.17;83.34
77124;BME280;66079;47.646;19.130;2023-01-20T07:26:02;99637.44;;;3.22;83.79
77124;BME280;66079;47.646;19.130;2023-01-20T07:29:06;99650.47;;;3.35;83.20
77124;BME280;66079;47.646;19.130;2023-01-20T07:32:09;99642.97;;;3.33;83.24
77124;BME280;66079;47.646;19.130;2023-01-20T07:35:11;99647.75;;;3.36;83.38
77124;BME280;66079;47.646;19.130;2023-01-20T07:38:14;99641.41;;;3.24;83.25
77124;BME280;66079;47.646;19.130;2023-01-20T07:41:18;99657.56;;;3.33;83.45
77124;BME280;66079;47.646;19.130;2023-01-20T07:44:21;99637.81;;;3.33;83.02
77124;BME280;66079;47.646;19.130;2023-01-20T07:47:24;99650.59;;;3.41;83.01
77124;BME280;66079;47.646;19.130;2023-01-20T07:50:26;99646.06;;;3.43;82.71
77124;BME280;66079;47.646;19.130;2023-01-20T07:57:01;99656.91;;;3.68;81.74
77124;BME280;66079;47.646;19.130;2023-01-20T08:00:04;99651.78;;;3.68;81.84
77124;BME280;66079;47.646;19.130;2023-01-20T08:03:08;99657.81;;;3.75;81.52
77124;BME280;66079;47.646;19.130;2023-01-20T08:06:13;99663.03;;;3.67;81.33
77124;BME280;66079;47.646;19.130;2023-01-20T08:09:17;99669.34;;;3.64;81.69
77124;BME280;66079;47.646;19.130;2023-01-20T08:12:19;99682.72;;;3.74;81.44
77124;BME280;66079;47.646;19.130;2023-01-20T08:15:22;99660.31;;;3.68;81.90
77124;BME280;66079;47.646;19.130;2023-01-20T08:18:24;99656.59;;;3.71;81.77
77124;BME280;66079;47.646;19.130;2023-01-20T08:21:29;99667.34;;;3.89;81.32
77124;BME280;66079;47.646;19.130;2023-01-20T08:24:32;99665.28;;;3.99;80.92
77124;BME280;66079;47.646;19.130;2023-01-20T08:27:34;99667.88;;;3.99;80.72
77124;BME280;66079;47.646;19.130;2023-01-20T08:30:37;99673.47;;;4.02;80.64
77124;BME280;66079;47.646;19.130;2023-01-20T08:33:41;99673.38;;;3.96;80.79
77124;BME280;66079;47.646;19.130;2023-01-20T08:36:44;99675.25;;;4.02;80.43
77124;BME280;66079;47.646;19.130;2023-01-20T08:39:47;99681.00;;;4.04;80.35
77124;BME280;66079;47.646;19.130;2023-01-20T08:42:49;99656.34;;;3.95;80.56
77124;BME280;66079;47.646;19.130;2023-01-20T08:46:04;99679.31;;;4.11;80.16
77124;BME280;66079;47.646;19.130;2023-01-20T08:49:14;99675.25;;;4.17;80.62
77124;BME280;66079;47.646;19.130;2023-01-20T08:52:17;99679.69;;;4.23;80.29
77124;BME280;66079;47.646;19.130;2023-01-20T08:55:20;99671.34;;;4.06;80.27
77124;BME280;66079;47.646;19.130;2023-01-20T08:58:22;99688.03;;;4.10;80.59
77124;BME280;66079;47.646;19.130;2023-01-20T09:01:28;99689.25;;;4.14;80.03
77124;BME280;66079;47.646;19.130;2023-01-20T09:04:35;99690.41;;;4.12;79.97
77124;BME280;66079;47.646;19.130;2023-01-20T09:07:38;99679.78;;;4.15;79.99
77124;BME280;66079;47.646;19.130;2023-01-20T09:10:40;99689.34;;;4.06;80.17
77124;BME280;66079;47.646;19.130;2023-01-20T09:13:43;99683.34;;;4.14;79.75
77124;BME280;66079;47.646;19.130;2023-01-20T09:16:46;99679.31;;;4.11;79.60
77124;BME280;66079;47.646;19.130;2023-01-20T09:19:48;99679.88;;;4.21;79.48
77124;BME280;66079;47.646;19.130;2023-01-20T09:22:51;99691.69;;;4.30;79.41
77124;BME280;66079;47.646;19.130;2023-01-20T09:25:54;99685.47;;;4.25;79.32
77124;BME280;66079;47.646;19.130;2023-01-20T09:29:00;99688.75;;;4.33;79.17
77124;BME280;66079;47.646;19.130;2023-01-20T09:32:11;99678.91;;;4.37;78.77
77124;BME280;66079;47.646;19.130;2023-01-20T09:35:15;99661.50;;;4.39;78.24
77124;BME280;66079;47.646;19.130;2023-01-20T09:38:18;99661.94;;;4.42;78.10
77124;BME280;66079;47.646;19.130;2023-01-20T09:41:42;99647.03;;;4.52;78.26
77124;BME280;66079;47.646;19.130;2023-01-20T09:45:16;99633.59;;;4.57;78.12
77124;BME280;66079;47.646;19.130;2023-01-20T09:52:26;99625.22;;;4.48;77.94
77124;BME280;66079;47.646;19.130;2023-01-20T09:55:52;99626.78;;;4.49;77.78
77124;BME280;66079;47.646;19.130;2023-01-20T09:59:35;99626.06;;;4.55;77.52
77124;BME280;66079;47.646;19.130;2023-01-20T10:02:40;99605.84;;;4.52;77.12
77124;BME280;66079;47.646;19.130;2023-01-20T10:05:48;99607.72;;;4.44;77.14
77124;BME280;66079;47.646;19.130;2023-01-20T10:08:59;99581.56;;;4.40;76.86
77124;BME280;66079;47.646;19.130;2023-01-20T10:12:21;99573.75;;;4.48;76.74
77124;BME280;66079;47.646;19.130;2023-01-20T10:15:29;99565.53;;;4.59;76.34
77124;BME280;66079;47.646;19.130;2023-01-20T10:18:51;99559.16;;;4.55;75.36
77124;BME280;66079;47.646;19.130;2023-01-20T10:25:34;99535.75;;;4.71;74.84
77124;BME280;66079;47.646;19.130;2023-01-20T10:28:50;99547.03;;;4.91;74.56
77124;BME280;66079;47.646;19.130;2023-01-20T10:32:03;99553.00;;;4.92;73.68
77124;BME280;66079;47.646;19.130;2023-01-20T10:35:21;99558.19;;;4.98;73.90
77124;BME280;66079;47.646;19.130;2023-01-20T10:41:49;99567.28;;;5.15;72.83
77124;BME280;66079;47.646;19.130;2023-01-20T10:44:53;99567.31;;;5.22;73.30
77124;BME280;66079;47.646;19.130;2023-01-20T10:51:50;99578.09;;;5.11;73.47
77124;BME280;66079;47.646;19.130;2023-01-20T10:58:22;99584.56;;;5.00;73.71
77124;BME280;66079;47.646;19.130;2023-01-20T11:01:25;99577.31;;;4.89;73.86
77124;BME280;66079;47.646;19.130;2023-01-20T11:04:28;99592.91;;;5.02;73.68
77124;BME280;66079;47.646;19.130;2023-01-20T11:07:32;99590.94;;;5.04;73.61
77124;BME280;66079;47.646;19.130;2023-01-20T11:10:35;99590.38;;;4.88;73.90
77124;BME280;66079;47.646;19.130;2023-01-20T11:13:38;99597.75;;;4.91;74.29
77124;BME280;66079;47.646;19.130;2023-01-20T11:16:41;99592.84;;;4.96;73.67
77124;BME280;66079;47.646;19.130;2023-01-20T11:19:55;99584.44;;;4.87;73.51
77124;BME280;66079;47.646;19.130;2023-01-20T11:22:58;99582.84;;;4.86;73.50
77124;BME280;66079;47.646;19.130;2023-01-20T11:29:35;99570.63;;;4.95;74.14
77124;BME280;66079;47.646;19.130;2023-01-20T11:32:42;99553.72;;;5.07;73.82
77124;BME280;66079;47.646;19.130;2023-01-20T11:36:17;99559.44;;;5.02;73.42
77124;BME280;66079;47.646;19.130;2023-01-20T11:39:34;99544.50;;;4.98;73.19
77124;BME280;66079;47.646;19.130;2023-01-20T11:42:45;99540.53;;;4.95;72.81
77124;BME280;66079;47.646;19.130;2023-01-20T11:45:48;99517.13;;;4.90;73.35
77124;BME280;66079;47.646;19.130;2023-01-20T11:55:48;99526.06;;;4.94;73.85
77124;BME280;66079;47.646;19.130;2023-01-20T12:05:23;99515.06;;;4.79;73.38
77124;BME280;66079;47.646;19.130;2023-01-20T12:15:23;99516.28;;;4.62;71.98
77124;BME280;66079;47.646;19.130;2023-01-20T12:18:37;99526.94;;;4.80;71.28
77124;BME280;66079;47.646;19.130;2023-01-20T12:22:04;99518.41;;;4.59;71.72
77124;BME280;66079;47.646;19.130;2023-01-20T12:25:26;99497.91;;;4.44;72.62
77124;BME280;66079;47.646;19.130;2023-01-20T12:28:44;99522.16;;;4.56;73.12
77124;BME280;66079;47.646;19.130;2023-01-20T12:31:50;99535.09;;;4.63;74.02
77124;BME280;66079;47.646;19.130;2023-01-20T12:34:53;99539.69;;;4.67;74.05
77124;BME280;66079;47.646;19.130;2023-01-20T12:38:00;99521.03;;;4.44;74.08
77124;BME280;66079;47.646;19.130;2023-01-20T12:41:15;99536.50;;;4.44;74.38
77124;BME280;66079;47.646;19.130;2023-01-20T12:44:38;99523.25;;;4.47;74.53
77124;BME280;66079;47.646;19.130;2023-01-20T12:58:07;99521.78;;;4.38;76.29
77124;BME280;66079;47.646;19.130;2023-01-20T13:01:33;99531.97;;;4.46;76.61
77124;BME280;66079;47.646;19.130;2023-01-20T13:05:13;99525.88;;;4.33;76.70
77124;BME280;66079;47.646;19.130;2023-01-20T13:08:31;99537.75;;;4.34;76.43
77124;BME280;66079;47.646;19.130;2023-01-20T13:15:45;99526.97;;;4.09;77.92
77124;BME280;66079;47.646;19.130;2023-01-20T13:19:26;99547.38;;;4.10;78.55
77124;BME280;66079;47.646;19.130;2023-01-20T13:22:29;99536.66;;;3.92;78.79
77124;BME280;66079;47.646;19.130;2023-01-20T13:25:33;99527.44;;;3.98;78.25
77124;BME280;66079;47.646;19.130;2023-01-20T13:28:36;99550.59;;;3.98;79.19
77124;BME280;66079;47.646;19.130;2023-01-20T13:31:43;99545.97;;;4.08;79.23
77124;BME280;66079;47.646;19.130;2023-01-20T13:34:47;99548.97;;;4.12;79.22
77124;BME280;66079;47.646;19.130;2023-01-20T13:37:53;99556.69;;;4.12;79.43
77124;BME280;66079;47.646;19.130;2023-01-20T13:40:59;99551.47;;;4.05;79.49
77124;BME280;66079;47.646;19.130;2023-01-20T13:44:36;99548.00;;;3.98;79.96
77124;BME280;66079;47.646;19.130;2023-01-20T13:47:50;99546.34;;;4.05;80.18
77124;BME280;66079;47.646;19.130;2023-01-20T13:50:53;99555.09;;;3.96;80.61
77124;BME280;66079;47.646;19.130;2023-01-20T13:57:35;99548.84;;;3.69;80.06
77124;BME280;66079;47.646;19.130;2023-01-20T14:00:38;99538.38;;;3.71;80.97
77124;BME280;66079;47.646;19.130;2023-01-20T14:03:41;99545.19;;;3.64;80.68
77124;BME280;66079;47.646;19.130;2023-01-20T14:06:47;99563.72;;;3.74;81.06
77124;BME280;66079;47.646;19.130;2023-01-20T14:09:53;99553.00;;;3.70;81.82
77124;BME280;66079;47.646;19.130;2023-01-20T14:12:56;99568.50;;;3.48;82.27
77124;BME280;66079;47.646;19.130;2023-01-20T14:15:59;99553.22;;;3.32;82.27
77124;BME280;66079;47.646;19.130;2023-01-20T14:19:26;99572.28;;;3.37;82.22
77124;BME280;66079;47.646;19.130;2023-01-20T14:22:31;99574.81;;;3.23;82.43
77124;BME280;66079;47.646;19.130;2023-01-20T14:25:33;99573.22;;;2.99;82.85
77124;BME280;66079;47.646;19.130;2023-01-20T14:28:42;99576.03;;;2.90;83.60
77124;BME280;66079;47.646;19.130;2023-01-20T14:31:45;99576.31;;;2.95;83.03
77124;BME280;66079;47.646;19.130;2023-01-20T14:34:49;99566.41;;;2.92;83.11
77124;BME280;66079;47.646;19.130;2023-01-20T14:37:52;99560.13;;;2.71;83.42
77124;BME280;66079;47.646;19.130;2023-01-20T14:40:55;99575.75;;;2.85;82.99
77124;BME280;66079;47.646;19.130;2023-01-20T14:43:58;99570.84;;;2.75;83.71
77124;BME280;66079;47.646;19.130;2023-01-20T14:47:02;99578.59;;;2.90;84.18
77124;BME280;66079;47.646;19.130;2023-01-20T14:50:05;99584.06;;;2.87;83.80
77124;BME280;66079;47.646;19.130;2023-01-20T14:53:14;99580.94;;;2.77;83.85
77124;BME280;66079;47.646;19.130;2023-01-20T14:56:20;99582.94;;;2.89;82.84
77124;BME280;66079;47.646;19.130;2023-01-20T14:59:24;99594.97;;;2.89;82.84
77124;BME280;66079;47.646;19.130;2023-01-20T15:02:33;99586.25;;;2.98;83.10
77124;BME280;66079;47.646;19.130;2023-01-20T15:05:37;99592.53;;;2.95;82.89
77124;BME280;66079;47.646;19.130;2023-01-20T15:08:46;99573.53;;;2.82;82.52
77124;BME280;66079;47.646;19.130;2023-01-20T15:12:35;99586.34;;;2.82;83.33
77124;BME280;66079;47.646;19.130;2023-01-20T15:15:40;99595.03;;;2.81;82.95
77124;BME280;66079;47.646;19.130;2023-01-20T15:22:19;99598.97;;;2.91;82.64
77124;BME280;66079;47.646;19.130;2023-01-20T15:25:23;99595.34;;;2.78;82.92
77124;BME280;66079;47.646;19.130;2023-01-20T15:28:27;99573.94;;;2.70;82.84
77124;BME280;66079;47.646;19.130;2023-01-20T15:31:30;99600.25;;;2.64;83.57
77124;BME280;66079;47.646;19.130;2023-01-20T15:34:33;99599.63;;;2.62;84.06
77124;BME280;66079;47.646;19.130;2023-01-20T15:37:36;99589.25;;;2.56;83.95
77124;BME280;66079;47.646;19.130;2023-01-20T15:40:38;99587.47;;;2.56;84.63
77124;BME280;66079;47.646;19.130;2023-01-20T15:43:41;99592.59;;;2.56;84.97
77124;BME280;66079;47.646;19.130;2023-01-20T15:46:46;99587.81;;;2.53;84.69
77124;BME280;66079;47.646;19.130;2023-01-20T15:49:48;99586.69;;;2.56;85.31
77124;BME280;66079;47.646;19.130;2023-01-20T15:52:51;99602.69;;;2.58;84.56
77124;BME280;66079;47.646;19.130;2023-01-20T15:55:54;99594.00;;;2.36;85.59
77124;BME280;66079;47.646;19.130;2023-01-20T15:58:56;99593.38;;;2.34;85.84
77124;BME280;66079;47.646;19.130;2023-01-20T16:01:59;99599.56;;;2.40;85.56
77124;BME280;66079;47.646;19.130;2023-01-20T16:05:01;99598.84;;;2.23;86.08
77124;BME280;66079;47.646;19.130;2023-01-20T16:08:12;99612.59;;;2.30;85.76
77124;BME280;66079;47.646;19.130;2023-01-20T16:11:16;99618.06;;;2.27;85.75
77124;BME280;66079;47.646;19.130;2023-01-20T16:14:19;99601.13;;;2.18;85.97
77124;BME280;66079;47.646;19.130;2023-01-20T16:17:22;99614.09;;;2.25;85.97
77124;BME280;66079;47.646;19.130;2023-01-20T16:20:26;99617.66;;;2.08;86.46
77124;BME280;66079;47.646;19.130;2023-01-20T16:23:29;99641.47;;;2.24;86.23
77124;BME280;66079;47.646;19.130;2023-01-20T16:26:33;99623.75;;;2.15;86.02
77124;BME280;66079;47.646;19.130;2023-01-20T16:29:36;99604.69;;;2.09;85.21
77124;BME280;66079;47.646;19.130;2023-01-20T16:32:38;99615.22;;;2.22;85.08
77124;BME280;66079;47.646;19.130;2023-01-20T16:35:41;99610.75;;;2.16;85.34
77124;BME280;66079;47.646;19.130;2023-01-20T16:38:44;99618.25;;;2.26;85.28
77124;BME280;66079;47.646;19.130;2023-01-20T16:41:47;99614.53;;;2.28;85.01
77124;BME280;66079;47.646;19.130;2023-01-20T16:44:51;99626.09;;;2.24;85.09
77124;BME280;66079;47.646;19.130;2023-01-20T16:47:54;99626.59;;;2.20;84.79
77124;BME280;66079;47.646;19.130;2023-01-20T16:51:02;99638.16;;;2.16;85.16
77124;BME280;66079;47.646;19.130;2023-01-20T16:54:08;99638.31;;;2.14;84.62
77124;BME280;66079;47.646;19.130;2023-01-20T16:57:10;99631.75;;;2.04;84.83
77124;BME280;66079;47.646;19.130;2023-01-20T17:00:14;99639.94;;;1.99;84.76
77124;BME280;66079;47.646;19.130;2023-01-20T17:03:24;99643.81;;;1.95;84.98
77124;BME280;66079;47.646;19.130;2023-01-20T17:06:32;99651.84;;;1.84;85.34
77124;BME280;66079;47.646;19.130;2023-01-20T17:09:35;99632.06;;;1.46;86.79
77124;BME280;66079;47.646;19.130;2023-01-20T17:12:38;99623.72;;;1.52;87.06
77124;BME280;66079;47.646;19.130;2023-01-20T17:15:41;99619.25;;;1.46;87.17
77124;BME280;66079;47.646;19.130;2023-01-20T17:18:50;99609.00;;;1.54;87.32
77124;BME280;66079;47.646;19.130;2023-01-20T17:21:53;99629.94;;;1.74;87.19
77124;BME280;66079;47.646;19.130;2023-01-20T17:24:57;99633.72;;;1.86;87.28
77124;BME280;66079;47.646;19.130;2023-01-20T17:28:00;99612.31;;;1.79;85.89
77124;BME280;66079;47.646;19.130;2023-01-20T17:31:04;99631.34;;;1.84;85.99
77124;BME280;66079;47.646;19.130;2023-01-20T17:34:08;99621.41;;;1.81;86.11
77124;BME280;66079;47.646;19.130;2023-01-20T17:37:11;99614.59;;;1.66;86.68
77124;BME280;66079;47.646;19.130;2023-01-20T17:40:14;99625.28;;;1.61;86.35
77124;BME280;66079;47.646;19.130;2023-01-20T17:43:18;99629.31;;;1.64;86.64
77124;BME280;66079;47.646;19.130;2023-01-20T17:46:23;99620.31;;;1.68;86.19
77124;BME280;66079;47.646;19.130;2023-01-20T17:49:26;99624.19;;;1.64;86.53
77124;BME280;66079;47.646;19.130;2023-01-20T17:52:29;99625.59;;;1.66;86.00
77124;BME280;66079;47.646;19.130;2023-01-20T17:55:31;99636.16;;;1.79;85.78
77124;BME280;66079;47.646;19.130;2023-01-20T17:58:35;99629.44;;;1.70;85.53
77124;BME280;66079;47.646;19.130;2023-01-20T18:01:37;99628.66;;;1.70;84.25
77124;BME280;66079;47.646;19.130;2023-01-20T18:04:40;99615.50;;;1.73;84.92